sensor_id;sensor_type;location;lat;lon;timestamp;temperature;humidity
8269;DHT22;4174;48.304;16.364;2022-12-10T00:01:15;4.80;99.90
8269;DHT22;4174;48.304;16.364;2022-12-10T00:07:17;4.80;99.90
8269;DHT22;4174;48.304;16.364;2022-12-10T00:13:20;4.80;99.90
8269;DHT22;4174;48.304;16.364;2022-12-10T00:19:24;4.70;99.90
8269;DHT22;4174;48.304;16.364;2022-12-10T00:25:28;4.80;99.90
8269;DHT22;4174;48.304;16.364;2022-12-10T00:31:33;4.80;99.90
8269;DHT22;4174;48.304;16.364;2022-12-10T00:37:35;4.80;99.90
8269;DHT22;4174;48.304;16.364;2022-12-10T00:43:39;4.90;99.90
8269;DHT22;4174;48.304;16.364;2022-12-10T00:49:41;4.90;99.90
8269;DHT22;4174;48.304;16.364;2022-12-10T00:55:45;5.00;99.90
8269;DHT22;4174;48.304;16.364;2022-12-10T01:01:48;4.90;99.90
8269;DHT22;4174;48.304;16.364;2022-12-10T01:07:52;5.00;99.90
8269;DHT22;4174;48.304;16.364;2022-12-10T01:13:56;4.90;99.90
8269;DHT22;4174;48.304;16.364;2022-12-10T01:20:00;4.90;99.90
8269;DHT22;4174;48.304;16.364;2022-12-10T01:26:05;5.10;99.90
8269;DHT22;4174;48.304;16.364;2022-12-10T01:32:06;5.20;99.90
8269;DHT22;4174;48.304;16.364;2022-12-10T01:38:10;5.00;99.90
8269;DHT22;4174;48.304;16.364;2022-12-10T01:50:58;5.20;99.90
8269;DHT22;4174;48.304;16.364;2022-12-10T01:57:04;5.30;99.90
8269;DHT22;4174;48.304;16.364;2022-12-10T02:03:08;5.30;99.90
8269;DHT22;4174;48.304;16.364;2022-12-10T02:09:14;5.00;99.90
8269;DHT22;4174;48.304;16.364;2022-12-10T02:15:29;4.90;99.90
8269;DHT22;4174;48.304;16.364;2022-12-10T02:21:32;4.90;99.90
8269;DHT22;4174;48.304;16.364;2022-12-10T02:27:44;4.90;99.90
8269;DHT22;4174;48.304;16.364;2022-12-10T02:33:49;4.80;99.90
8269;DHT22;4174;48.304;16.364;2022-12-10T02:39:46;4.80;99.90
8269;DHT22;4174;48.304;16.364;2022-12-10T02:45:48;4.90;99.90
8269;DHT22;4174;48.304;16.364;2022-12-10T02:51:51;4.80;99.90
8269;DHT22;4174;48.304;16.364;2022-12-10T02:58:21;4.90;99.90
8269;DHT22;4174;48.304;16.364;2022-12-10T03:04:24;4.90;99.90
8269;DHT22;4174;48.304;16.364;2022-12-10T03:10:33;5.00;99.90
8269;DHT22;4174;48.304;16.364;2022-12-10T03:16:39;5.00;99.90
8269;DHT22;4174;48.304;16.364;2022-12-10T03:22:42;4.90;99.90
8269;DHT22;4174;48.304;16.364;2022-12-10T03:28:46;5.10;99.90
8269;DHT22;4174;48.304;16.364;2022-12-10T03:34:48;5.10;99.90
8269;DHT22;4174;48.304;16.364;2022-12-10T03:40:51;5.20;99.90
8269;DHT22;4174;48.304;16.364;2022-12-10T03:46:54;5.20;99.90
8269;DHT22;4174;48.304;16.364;2022-12-10T03:52:57;5.30;99.90
8269;DHT22;4174;48.304;16.364;2022-12-10T03:59:01;5.40;99.90
8269;DHT22;4174;48.304;16.364;2022-12-10T04:05:07;5.60;99.90
8269;DHT22;4174;48.304;16.364;2022-12-10T04:11:11;5.60;99.90
8269;DHT22;4174;48.304;16.364;2022-12-10T04:17:14;5.70;99.90
8269;DHT22;4174;48.304;16.364;2022-12-10T04:23:17;5.70;99.90
8269;DHT22;4174;48.304;16.364;2022-12-10T04:29:36;5.80;99.90
8269;DHT22;4174;48.304;16.364;2022-12-10T04:35:40;5.70;99.90
8269;DHT22;4174;48.304;16.364;2022-12-10T04:41:44;5.70;99.90
8269;DHT22;4174;48.304;16.364;2022-12-10T04:47:46;5.70;99.90
8269;DHT22;4174;48.304;16.364;2022-12-10T04:53:49;5.70;99.90
8269;DHT22;4174;48.304;16.364;2022-12-10T04:59:53;5.70;99.90
8269;DHT22;4174;48.304;16.364;2022-12-10T05:06:04;5.70;99.90
8269;DHT22;4174;48.304;16.364;2022-12-10T05:12:06;5.70;99.90
8269;DHT22;4174;48.304;16.364;2022-12-10T05:18:09;5.60;99.90
8269;DHT22;4174;48.304;16.364;2022-12-10T05:24:13;5.60;99.90
8269;DHT22;4174;48.304;16.364;2022-12-10T05:30:15;5.50;99.90
8269;DHT22;4174;48.304;16.364;2022-12-10T05:36:19;5.40;99.90
8269;DHT22;4174;48.304;16.364;2022-12-10T05:42:21;5.40;99.90
8269;DHT22;4174;48.304;16.364;2022-12-10T05:48:25;5.50;99.90
8269;DHT22;4174;48.304;16.364;2022-12-10T05:54:28;5.50;99.90
8269;DHT22;4174;48.304;16.364;2022-12-10T06:00:32;5.50;99.90
8269;DHT22;4174;48.304;16.364;2022-12-10T06:06:36;5.50;99.90
8269;DHT22;4174;48.304;16.364;2022-12-10T06:12:38;5.60;99.90
8269;DHT22;4174;48.304;16.364;2022-12-10T06:18:41;5.60;99.90
8269;DHT22;4174;48.304;16.364;2022-12-10T06:24:44;5.60;99.90
8269;DHT22;4174;48.304;16.364;2022-12-10T06:30:49;5.60;99.90
8269;DHT22;4174;48.304;16.364;2022-12-10T06:36:52;5.40;99.90
8269;DHT22;4174;48.304;16.364;2022-12-10T06:42:57;5.40;99.90
8269;DHT22;4174;48.304;16.364;2022-12-10T06:49:01;5.30;99.90
8269;DHT22;4174;48.304;16.364;2022-12-10T06:55:05;5.30;99.90
8269;DHT22;4174;48.304;16.364;2022-12-10T07:01:11;5.50;99.90
8269;DHT22;4174;48.304;16.364;2022-12-10T07:07:18;5.60;99.90
8269;DHT22;4174;48.304;16.364;2022-12-10T07:13:22;5.60;99.90
8269;DHT22;4174;48.304;16.364;2022-12-10T07:19:25;5.60;99.90
8269;DHT22;4174;48.304;16.364;2022-12-10T07:25:30;5.60;99.90
8269;DHT22;4174;48.304;16.364;2022-12-10T07:31:33;5.60;99.90
8269;DHT22;4174;48.304;16.364;2022-12-10T07:37:36;5.60;99.90
8269;DHT22;4174;48.304;16.364;2022-12-10T07:43:40;5.70;99.90
8269;DHT22;4174;48.304;16.364;2022-12-10T07:49:42;5.60;99.90
8269;DHT22;4174;48.304;16.364;2022-12-10T07:55:46;5.60;99.90
8269;DHT22;4174;48.304;16.364;2022-12-10T08:01:50;5.60;99.90
8269;DHT22;4174;48.304;16.364;2022-12-10T08:07:53;5.60;99.90
8269;DHT22;4174;48.304;16.364;2022-12-10T08:13:57;5.70;99.90
8269;DHT22;4174;48.304;16.364;2022-12-10T08:20:01;5.60;99.90
8269;DHT22;4174;48.304;16.364;2022-12-10T08:26:06;5.60;99.90
8269;DHT22;4174;48.304;16.364;2022-12-10T08:32:09;5.90;99.90
8269;DHT22;4174;48.304;16.364;2022-12-10T08:38:13;5.90;99.90
8269;DHT22;4174;48.304;16.364;2022-12-10T08:44:17;6.10;99.90
8269;DHT22;4174;48.304;16.364;2022-12-10T08:50:21;6.20;99.90
8269;DHT22;4174;48.304;16.364;2022-12-10T08:56:25;6.10;99.90
8269;DHT22;4174;48.304;16.364;2022-12-10T09:02:28;6.20;99.90
8269;DHT22;4174;48.304;16.364;2022-12-10T09:08:32;6.20;99.90
8269;DHT22;4174;48.304;16.364;2022-12-10T09:14:37;6.10;99.90
8269;DHT22;4174;48.304;16.364;2022-12-10T09:20:40;6.10;99.90
8269;DHT22;4174;48.304;16.364;2022-12-10T09:26:45;6.20;99.90
8269;DHT22;4174;48.304;16.364;2022-12-10T09:32:50;6.10;99.90
8269;DHT22;4174;48.304;16.364;2022-12-10T09:38:55;6.20;99.90
8269;DHT22;4174;48.304;16.364;2022-12-10T09:45:18;6.20;99.90
8269;DHT22;4174;48.304;16.364;2022-12-10T09:51:36;6.30;99.90
8269;DHT22;4174;48.304;16.364;2022-12-10T09:57:40;6.40;99.90
8269;DHT22;4174;48.304;16.364;2022-12-10T10:03:44;6.50;99.90
8269;DHT22;4174;48.304;16.364;2022-12-10T10:09:47;6.50;99.90
8269;DHT22;4174;48.304;16.364;2022-12-10T10:15:51;6.40;99.90
8269;DHT22;4174;48.304;16.364;2022-12-10T10:21:55;6.40;99.90
8269;DHT22;4174;48.304;16.364;2022-12-10T10:27:59;6.40;99.90
8269;DHT22;4174;48.304;16.364;2022-12-10T10:34:04;6.30;99.90
8269;DHT22;4174;48.304;16.364;2022-12-10T10:40:21;6.20;99.90
8269;DHT22;4174;48.304;16.364;2022-12-10T10:46:27;6.10;99.90
8269;DHT22;4174;48.304;16.364;2022-12-10T10:52:38;6.30;99.90
8269;DHT22;4174;48.304;16.364;2022-12-10T10:59:06;6.30;99.90
8269;DHT22;4174;48.304;16.364;2022-12-10T11:05:20;6.40;99.90
8269;DHT22;4174;48.304;16.364;2022-12-10T11:11:34;6.30;99.90
8269;DHT22;4174;48.304;16.364;2022-12-10T11:17:28;6.50;99.90
8269;DHT22;4174;48.304;16.364;2022-12-10T11:23:37;6.70;99.90
8269;DHT22;4174;48.304;16.364;2022-12-10T11:29:46;6.90;99.90
8269;DHT22;4174;48.304;16.364;2022-12-10T11:35:58;7.00;99.90
8269;DHT22;4174;48.304;16.364;2022-12-10T11:42:22;7.00;99.90
8269;DHT22;4174;48.304;16.364;2022-12-10T11:48:39;7.10;99.90
8269;DHT22;4174;48.304;16.364;2022-12-10T11:54:58;7.40;99.90
8269;DHT22;4174;48.304;16.364;2022-12-10T12:01:24;7.30;99.90
8269;DHT22;4174;48.304;16.364;2022-12-10T12:07:32;7.00;99.90
8269;DHT22;4174;48.304;16.364;2022-12-10T12:13:36;6.80;99.90
8269;DHT22;4174;48.304;16.364;2022-12-10T12:19:50;6.80;99.90
8269;DHT22;4174;48.304;16.364;2022-12-10T12:25:54;6.70;99.90
8269;DHT22;4174;48.304;16.364;2022-12-10T12:31:58;6.70;99.90
8269;DHT22;4174;48.304;16.364;2022-12-10T12:38:01;6.50;99.90
8269;DHT22;4174;48.304;16.364;2022-12-10T12:44:22;6.50;99.90
8269;DHT22;4174;48.304;16.364;2022-12-10T12:50:29;6.50;99.90
8269;DHT22;4174;48.304;16.364;2022-12-10T12:56:41;6.50;99.90
8269;DHT22;4174;48.304;16.364;2022-12-10T13:03:04;6.30;99.90
8269;DHT22;4174;48.304;16.364;2022-12-10T13:09:27;6.30;99.90
8269;DHT22;4174;48.304;16.364;2022-12-10T13:15:36;6.20;99.90
8269;DHT22;4174;48.304;16.364;2022-12-10T13:21:44;6.30;99.90
8269;DHT22;4174;48.304;16.364;2022-12-10T13:27:42;6.30;99.90
8269;DHT22;4174;48.304;16.364;2022-12-10T13:33:51;6.30;99.90
8269;DHT22;4174;48.304;16.364;2022-12-10T13:39:59;6.10;99.90
8269;DHT22;4174;48.304;16.364;2022-12-10T13:52:25;6.10;99.90
8269;DHT22;4174;48.304;16.364;2022-12-10T14:05:22;6.10;99.90
8269;DHT22;4174;48.304;16.364;2022-12-10T14:11:31;6.10;99.90
8269;DHT22;4174;48.304;16.364;2022-12-10T14:17:38;6.00;99.90
8269;DHT22;4174;48.304;16.364;2022-12-10T14:23:43;6.00;99.90
8269;DHT22;4174;48.304;16.364;2022-12-10T14:29:47;6.00;99.90
8269;DHT22;4174;48.304;16.364;2022-12-10T14:35:50;6.00;99.90
8269;DHT22;4174;48.304;16.364;2022-12-10T14:41:57;5.90;99.90
8269;DHT22;4174;48.304;16.364;2022-12-10T14:48:00;5.90;99.90
8269;DHT22;4174;48.304;16.364;2022-12-10T14:54:02;5.90;99.90
8269;DHT22;4174;48.304;16.364;2022-12-10T15:00:10;5.90;99.90
8269;DHT22;4174;48.304;16.364;2022-12-10T15:06:15;5.80;99.90
8269;DHT22;4174;48.304;16.364;2022-12-10T15:12:31;5.60;99.90
8269;DHT22;4174;48.304;16.364;2022-12-10T15:18:38;5.60;99.90
8269;DHT22;4174;48.304;16.364;2022-12-10T15:24:42;5.70;99.90
8269;DHT22;4174;48.304;16.364;2022-12-10T15:30:45;5.70;99.90
8269;DHT22;4174;48.304;16.364;2022-12-10T15:36:50;5.80;99.90
8269;DHT22;4174;48.304;16.364;2022-12-10T15:42:56;5.80;99.90
8269;DHT22;4174;48.304;16.364;2022-12-10T15:48:56;5.70;99.90
8269;DHT22;4174;48.304;16.364;2022-12-10T15:55:00;5.60;99.90
8269;DHT22;4174;48.304;16.364;2022-12-10T16:01:04;5.70;99.90
8269;DHT22;4174;48.304;16.364;2022-12-10T16:07:09;5.70;99.90
8269;DHT22;4174;48.304;16.364;2022-12-10T16:13:17;5.70;99.90
8269;DHT22;4174;48.304;16.364;2022-12-10T16:19:18;5.70;99.90
8269;DHT22;4174;48.304;16.364;2022-12-10T16:25:22;5.70;99.90
8269;DHT22;4174;48.304;16.364;2022-12-10T16:31:25;5.70;99.90
8269;DHT22;4174;48.304;16.364;2022-12-10T16:37:30;5.70;99.90
8269;DHT22;4174;48.304;16.364;2022-12-10T16:43:33;5.70;99.90
8269;DHT22;4174;48.304;16.364;2022-12-10T16:49:37;5.70;99.90
8269;DHT22;4174;48.304;16.364;2022-12-10T16:55:41;5.60;99.90
8269;DHT22;4174;48.304;16.364;2022-12-10T17:01:44;5.70;99.90
8269;DHT22;4174;48.304;16.364;2022-12-10T17:07:49;5.60;99.90
8269;DHT22;4174;48.304;16.364;2022-12-10T17:13:52;5.70;99.90
8269;DHT22;4174;48.304;16.364;2022-12-10T17:19:56;5.50;99.90
8269;DHT22;4174;48.304;16.364;2022-12-10T17:26:00;5.50;99.90
8269;DHT22;4174;48.304;16.364;2022-12-10T17:32:03;5.40;99.90
8269;DHT22;4174;48.304;16.364;2022-12-10T17:38:09;5.60;99.90
8269;DHT22;4174;48.304;16.364;2022-12-10T17:44:09;5.50;99.90
8269;DHT22;4174;48.304;16.364;2022-12-10T17:50:23;5.60;99.90
8269;DHT22;4174;48.304;16.364;2022-12-10T17:56:23;5.50;99.90
8269;DHT22;4174;48.304;16.364;2022-12-10T18:02:26;5.60;99.90
8269;DHT22;4174;48.304;16.364;2022-12-10T18:08:30;5.60;99.90
8269;DHT22;4174;48.304;16.364;2022-12-10T18:14:33;5.60;99.90
8269;DHT22;4174;48.304;16.364;2022-12-10T18:20:37;5.60;99.90
8269;DHT22;4174;48.304;16.364;2022-12-10T18:26:39;5.50;99.90
8269;DHT22;4174;48.304;16.364;2022-12-10T18:32:43;5.50;99.90
8269;DHT22;4174;48.304;16.364;2022-12-10T18:38:46;5.60;99.90
8269;DHT22;4174;48.304;16.364;2022-12-10T18:44:49;5.50;99.90
8269;DHT22;4174;48.304;16.364;2022-12-10T18:50:53;5.50;99.90
8269;DHT22;4174;48.304;16.364;2022-12-10T18:56:56;5.40;99.90
8269;DHT22;4174;48.304;16.364;2022-12-10T19:03:00;5.40;99.90
8269;DHT22;4174;48.304;16.364;2022-12-10T19:09:03;5.30;99.90
8269;DHT22;4174;48.304;16.364;2022-12-10T19:15:07;5.30;99.90
8269;DHT22;4174;48.304;16.364;2022-12-10T19:21:11;5.30;99.90
8269;DHT22;4174;48.304;16.364;2022-12-10T19:27:14;5.40;99.90
8269;DHT22;4174;48.304;16.364;2022-12-10T19:33:18;5.30;99.90
8269;DHT22;4174;48.304;16.364;2022-12-10T19:39:23;5.40;99.90
8269;DHT22;4174;48.304;16.364;2022-12-10T19:45:25;5.30;99.90
8269;DHT22;4174;48.304;16.364;2022-12-10T19:51:28;5.00;99.90
8269;DHT22;4174;48.304;16.364;2022-12-10T19:57:31;4.90;99.90
8269;DHT22;4174;48.304;16.364;2022-12-10T20:03:34;5.00;99.90
8269;DHT22;4174;48.304;16.364;2022-12-10T20:09:39;5.00;99.90
8269;DHT22;4174;48.304;16.364;2022-12-10T20:15:42;4.90;99.90
8269;DHT22;4174;48.304;16.364;2022-12-10T20:21:46;4.90;99.90
8269;DHT22;4174;48.304;16.364;2022-12-10T20:27:49;4.90;99.90
8269;DHT22;4174;48.304;16.364;2022-12-10T20:33:51;4.80;99.90
8269;DHT22;4174;48.304;16.364;2022-12-10T20:39:54;4.80;99.90
8269;DHT22;4174;48.304;16.364;2022-12-10T20:45:58;4.60;99.90
8269;DHT22;4174;48.304;16.364;2022-12-10T20:52:01;4.60;99.90
8269;DHT22;4174;48.304;16.364;2022-12-10T20:58:04;4.60;99.90
8269;DHT22;4174;48.304;16.364;2022-12-10T21:04:08;4.70;99.90
8269;DHT22;4174;48.304;16.364;2022-12-10T21:10:14;4.70;99.90
8269;DHT22;4174;48.304;16.364;2022-12-10T21:16:19;4.60;99.90
8269;DHT22;4174;48.304;16.364;2022-12-10T21:22:20;4.60;99.90
8269;DHT22;4174;48.304;16.364;2022-12-10T21:28:24;4.60;99.90
8269;DHT22;4174;48.304;16.364;2022-12-10T21:34:26;4.60;99.90
8269;DHT22;4174;48.304;16.364;2022-12-10T21:40:29;4.70;99.90
8269;DHT22;4174;48.304;16.364;2022-12-10T21:46:32;4.60;99.90
8269;DHT22;4174;48.304;16.364;2022-12-10T21:52:35;4.70;99.90
8269;DHT22;4174;48.304;16.364;2022-12-10T21:58:38;4.80;99.90
8269;DHT22;4174;48.304;16.364;2022-12-10T22:04:41;4.70;99.90
8269;DHT22;4174;48.304;16.364;2022-12-10T22:10:45;4.60;99.90
8269;DHT22;4174;48.304;16.364;2022-12-10T22:16:50;4.60;99.90
8269;DHT22;4174;48.304;16.364;2022-12-10T22:22:53;4.70;99.90
8269;DHT22;4174;48.304;16.364;2022-12-10T22:28:57;4.70;99.90
8269;DHT22;4174;48.304;16.364;2022-12-10T22:35:02;4.70;99.90
8269;DHT22;4174;48.304;16.364;2022-12-10T22:41:06;4.70;99.90
8269;DHT22;4174;48.304;16.364;2022-12-10T22:47:09;4.60;99.90
8269;DHT22;4174;48.304;16.364;2022-12-10T22:53:12;4.60;99.90
8269;DHT22;4174;48.304;16.364;2022-12-10T22:59:16;4.50;99.90
8269;DHT22;4174;48.304;16.364;2022-12-10T23:05:19;4.50;99.90
8269;DHT22;4174;48.304;16.364;2022-12-10T23:11:22;4.40;99.90
8269;DHT22;4174;48.304;16.364;2022-12-10T23:17:26;4.50;99.90
8269;DHT22;4174;48.304;16.364;2022-12-10T23:23:29;4.50;99.90
8269;DHT22;4174;48.304;16.364;2022-12-10T23:29:33;4.50;99.90
8269;DHT22;4174;48.304;16.364;2022-12-10T23:35:40;4.40;99.90
8269;DHT22;4174;48.304;16.364;2022-12-10T23:41:42;4.50;99.90
8269;DHT22;4174;48.304;16.364;2022-12-10T23:47:46;4.40;99.90
8269;DHT22;4174;48.304;16.364;2022-12-10T23:53:50;4.30;99.90
8269;DHT22;4174;48.304;16.364;2022-12-10T23:59:54;4.40;99.90
